sensor_id;sensor_type;location;lat;lon;timestamp;pressure;altitude;pressure_sealevel;temperature;humidity
77897;BME280;67092;64.282;21.056;2023-05-07T00:01:41;102434.18;;;20.59;23.13
77897;BME280;67092;64.282;21.056;2023-05-07T00:04:06;102434.39;;;20.93;22.87
77897;BME280;67092;64.282;21.056;2023-05-07T00:06:32;102437.88;;;20.90;22.91
77897;BME280;67092;64.282;21.056;2023-05-07T00:08:58;102433.96;;;20.76;22.89
77897;BME280;67092;64.282;21.056;2023-05-07T00:11:23;102435.05;;;21.03;22.81
77897;BME280;67092;64.282;21.056;2023-05-07T00:13:49;102431.76;;;20.94;22.70
77897;BME280;67092;64.282;21.056;2023-05-07T00:16:14;102426.85;;;21.07;22.83
77897;BME280;67092;64.282;21.056;2023-05-07T00:18:40;102428.00;;;21.23;22.71
77897;BME280;67092;64.282;21.056;2023-05-07T00:21:06;102425.14;;;21.17;22.71
77897;BME280;67092;64.282;21.056;2023-05-07T00:23:31;102421.16;;;20.77;23.10
77897;BME280;67092;64.282;21.056;2023-05-07T00:25:57;102415.48;;;20.88;23.04
77897;BME280;67092;64.282;21.056;2023-05-07T00:28:22;102417.84;;;21.18;22.73
77897;BME280;67092;64.282;21.056;2023-05-07T00:30:48;102420.85;;;21.07;22.85
77897;BME280;67092;64.282;21.056;2023-05-07T00:33:14;102420.86;;;20.52;23.10
77897;BME280;67092;64.282;21.056;2023-05-07T00:35:39;102419.27;;;20.61;23.29
77897;BME280;67092;64.282;21.056;2023-05-07T00:38:05;102419.17;;;20.85;23.02
77897;BME280;67092;64.282;21.056;2023-05-07T00:40:31;102417.98;;;20.84;23.07
77897;BME280;67092;64.282;21.056;2023-05-07T00:42:56;102417.46;;;20.83;23.04
77897;BME280;67092;64.282;21.056;2023-05-07T00:45:23;102415.28;;;21.02;23.10
77897;BME280;67092;64.282;21.056;2023-05-07T00:47:47;102413.92;;;20.92;22.96
77897;BME280;67092;64.282;21.056;2023-05-07T00:50:13;102411.45;;;20.91;22.98
77897;BME280;67092;64.282;21.056;2023-05-07T00:52:39;102406.92;;;20.88;23.05
77897;BME280;67092;64.282;21.056;2023-05-07T00:55:07;102407.95;;;20.71;23.21
77897;BME280;67092;64.282;21.056;2023-05-07T00:57:33;102407.57;;;21.01;22.91
77897;BME280;67092;64.282;21.056;2023-05-07T00:59:56;102407.51;;;21.08;23.05
77897;BME280;67092;64.282;21.056;2023-05-07T01:02:21;102406.14;;;20.93;23.02
77897;BME280;67092;64.282;21.056;2023-05-07T01:04:47;102405.28;;;21.24;22.95
77897;BME280;67092;64.282;21.056;2023-05-07T01:07:13;102406.81;;;20.92;22.63
77897;BME280;67092;64.282;21.056;2023-05-07T01:09:38;102408.14;;;21.50;22.12
77897;BME280;67092;64.282;21.056;2023-05-07T01:12:04;102407.73;;;21.23;22.75
77897;BME280;67092;64.282;21.056;2023-05-07T01:14:29;102408.74;;;21.12;22.82
77897;BME280;67092;64.282;21.056;2023-05-07T01:16:55;102405.75;;;21.17;22.97
77897;BME280;67092;64.282;21.056;2023-05-07T01:19:20;102407.71;;;20.95;23.14
77897;BME280;67092;64.282;21.056;2023-05-07T01:21:48;102408.51;;;21.09;23.05
77897;BME280;67092;64.282;21.056;2023-05-07T01:24:12;102407.95;;;20.97;23.13
77897;BME280;67092;64.282;21.056;2023-05-07T01:26:39;102404.11;;;20.54;23.48
77897;BME280;67092;64.282;21.056;2023-05-07T01:29:03;102404.00;;;20.84;23.47
77897;BME280;67092;64.282;21.056;2023-05-07T01:31:29;102401.98;;;21.08;23.05
77897;BME280;67092;64.282;21.056;2023-05-07T01:33:54;102404.10;;;20.75;23.34
77897;BME280;67092;64.282;21.056;2023-05-07T01:36:20;102403.67;;;21.43;22.94
77897;BME280;67092;64.282;21.056;2023-05-07T01:38:45;102406.24;;;21.03;23.07
77897;BME280;67092;64.282;21.056;2023-05-07T01:41:12;102409.18;;;20.74;23.35
77897;BME280;67092;64.282;21.056;2023-05-07T01:43:37;102412.25;;;20.37;23.72
77897;BME280;67092;64.282;21.056;2023-05-07T01:46:03;102414.08;;;20.61;23.70
77897;BME280;67092;64.282;21.056;2023-05-07T01:48:28;102415.34;;;21.08;23.32
77897;BME280;67092;64.282;21.056;2023-05-07T01:50:54;102413.05;;;20.62;23.64
77897;BME280;67092;64.282;21.056;2023-05-07T01:53:19;102411.57;;;20.43;23.62
77897;BME280;67092;64.282;21.056;2023-05-07T01:55:45;102413.16;;;21.03;23.28
77897;BME280;67092;64.282;21.056;2023-05-07T01:58:10;102412.63;;;20.64;23.48
77897;BME280;67092;64.282;21.056;2023-05-07T02:00:36;102414.27;;;20.64;23.36
77897;BME280;67092;64.282;21.056;2023-05-07T02:03:01;102412.07;;;21.07;23.05
77897;BME280;67092;64.282;21.056;2023-05-07T02:05:27;102412.18;;;20.74;23.30
77897;BME280;67092;64.282;21.056;2023-05-07T02:07:53;102409.55;;;20.71;23.29
77897;BME280;67092;64.282;21.056;2023-05-07T02:10:18;102413.69;;;20.62;23.35
77897;BME280;67092;64.282;21.056;2023-05-07T02:12:44;102411.42;;;20.51;23.49
77897;BME280;67092;64.282;21.056;2023-05-07T02:15:10;102412.08;;;20.68;23.52
77897;BME280;67092;64.282;21.056;2023-05-07T02:17:39;102409.56;;;20.48;23.43
77897;BME280;67092;64.282;21.056;2023-05-07T02:20:01;102409.13;;;20.41;23.54
77897;BME280;67092;64.282;21.056;2023-05-07T02:22:26;102410.04;;;20.36;23.64
77897;BME280;67092;64.282;21.056;2023-05-07T02:24:52;102410.54;;;20.93;23.14
77897;BME280;67092;64.282;21.056;2023-05-07T02:27:18;102411.15;;;20.89;23.18
77897;BME280;67092;64.282;21.056;2023-05-07T02:29:43;102412.16;;;20.85;23.42
77897;BME280;67092;64.282;21.056;2023-05-07T02:32:09;102412.65;;;20.93;23.38
77897;BME280;67092;64.282;21.056;2023-05-07T02:34:35;102412.45;;;20.92;23.38
77897;BME280;67092;64.282;21.056;2023-05-07T02:37:00;102407.55;;;20.69;23.37
77897;BME280;67092;64.282;21.056;2023-05-07T02:39:26;102407.50;;;20.98;23.11
77897;BME280;67092;64.282;21.056;2023-05-07T02:41:51;102408.15;;;20.59;23.46
77897;BME280;67092;64.282;21.056;2023-05-07T02:44:17;102407.08;;;20.06;23.97
77897;BME280;67092;64.282;21.056;2023-05-07T02:46:43;102409.00;;;20.50;23.79
77897;BME280;67092;64.282;21.056;2023-05-07T02:49:08;102413.28;;;20.71;23.60
77897;BME280;67092;64.282;21.056;2023-05-07T02:51:34;102413.62;;;20.55;23.50
77897;BME280;67092;64.282;21.056;2023-05-07T02:53:59;102413.38;;;20.39;23.72
77897;BME280;67092;64.282;21.056;2023-05-07T02:56:26;102415.59;;;20.58;23.56
77897;BME280;67092;64.282;21.056;2023-05-07T02:58:50;102415.46;;;20.35;23.79
77897;BME280;67092;64.282;21.056;2023-05-07T03:01:16;102414.20;;;20.36;23.78
77897;BME280;67092;64.282;21.056;2023-05-07T03:03:41;102414.52;;;20.63;23.59
77897;BME280;67092;64.282;21.056;2023-05-07T03:06:07;102414.58;;;20.51;23.68
77897;BME280;67092;64.282;21.056;2023-05-07T03:08:33;102415.27;;;20.82;23.46
77897;BME280;67092;64.282;21.056;2023-05-07T03:10:58;102414.49;;;20.92;23.52
77897;BME280;67092;64.282;21.056;2023-05-07T03:13:24;102414.96;;;20.64;23.66
77897;BME280;67092;64.282;21.056;2023-05-07T03:15:50;102415.56;;;20.67;23.38
77897;BME280;67092;64.282;21.056;2023-05-07T03:18:15;102418.02;;;20.74;23.75
77897;BME280;67092;64.282;21.056;2023-05-07T03:20:41;102416.96;;;20.87;23.46
77897;BME280;67092;64.282;21.056;2023-05-07T03:23:06;102414.40;;;20.72;23.80
77897;BME280;67092;64.282;21.056;2023-05-07T03:25:32;102416.39;;;20.59;23.69
77897;BME280;67092;64.282;21.056;2023-05-07T03:27:58;102414.09;;;21.08;23.27
77897;BME280;67092;64.282;21.056;2023-05-07T03:30:24;102411.30;;;20.73;23.77
77897;BME280;67092;64.282;21.056;2023-05-07T03:32:49;102411.86;;;20.81;23.49
77897;BME280;67092;64.282;21.056;2023-05-07T03:35:15;102411.68;;;21.31;23.09
77897;BME280;67092;64.282;21.056;2023-05-07T03:37:40;102411.46;;;21.12;23.27
77897;BME280;67092;64.282;21.056;2023-05-07T03:40:07;102411.04;;;20.87;23.68
77897;BME280;67092;64.282;21.056;2023-05-07T03:42:31;102409.05;;;20.79;23.83
77897;BME280;67092;64.282;21.056;2023-05-07T03:44:57;102405.98;;;20.07;24.21
77897;BME280;67092;64.282;21.056;2023-05-07T03:47:23;102403.46;;;20.26;24.10
77897;BME280;67092;64.282;21.056;2023-05-07T03:49:48;102404.61;;;20.84;23.77
77897;BME280;67092;64.282;21.056;2023-05-07T03:52:14;102409.85;;;20.97;23.61
77897;BME280;67092;64.282;21.056;2023-05-07T03:54:39;102409.63;;;20.60;23.73
77897;BME280;67092;64.282;21.056;2023-05-07T03:57:05;102410.36;;;21.06;23.77
77897;BME280;67092;64.282;21.056;2023-05-07T03:59:31;102412.78;;;20.91;23.66
77897;BME280;67092;64.282;21.056;2023-05-07T04:01:56;102412.64;;;20.82;23.67
77897;BME280;67092;64.282;21.056;2023-05-07T04:04:22;102413.92;;;20.64;23.88
77897;BME280;67092;64.282;21.056;2023-05-07T04:06:47;102413.02;;;20.96;23.57
77897;BME280;67092;64.282;21.056;2023-05-07T04:09:13;102415.25;;;20.61;23.67
77897;BME280;67092;64.282;21.056;2023-05-07T04:11:39;102414.01;;;20.33;23.90
77897;BME280;67092;64.282;21.056;2023-05-07T04:14:04;102413.46;;;20.98;23.36
77897;BME280;67092;64.282;21.056;2023-05-07T04:16:30;102414.49;;;20.74;23.92
77897;BME280;67092;64.282;21.056;2023-05-07T04:18:55;102416.74;;;20.26;23.99
77897;BME280;67092;64.282;21.056;2023-05-07T04:21:21;102411.78;;;20.75;23.81
77897;BME280;67092;64.282;21.056;2023-05-07T04:23:47;102412.50;;;20.58;23.74
77897;BME280;67092;64.282;21.056;2023-05-07T04:26:13;102414.30;;;20.92;23.21
77897;BME280;67092;64.282;21.056;2023-05-07T04:28:38;102413.33;;;21.42;23.25
77897;BME280;67092;64.282;21.056;2023-05-07T04:31:04;102413.56;;;20.86;23.55
77897;BME280;67092;64.282;21.056;2023-05-07T04:33:29;102416.21;;;20.72;23.60
77897;BME280;67092;64.282;21.056;2023-05-07T04:35:55;102413.77;;;20.64;23.66
77897;BME280;67092;64.282;21.056;2023-05-07T04:38:20;102417.72;;;20.49;24.05
77897;BME280;67092;64.282;21.056;2023-05-07T04:40:46;102416.30;;;20.68;23.72
77897;BME280;67092;64.282;21.056;2023-05-07T04:43:12;102416.24;;;20.59;23.78
77897;BME280;67092;64.282;21.056;2023-05-07T04:45:37;102411.69;;;21.06;23.54
77897;BME280;67092;64.282;21.056;2023-05-07T04:48:03;102411.61;;;20.68;23.87
77897;BME280;67092;64.282;21.056;2023-05-07T04:50:28;102410.91;;;20.81;23.59
77897;BME280;67092;64.282;21.056;2023-05-07T04:52:54;102411.41;;;20.60;23.74
77897;BME280;67092;64.282;21.056;2023-05-07T04:55:20;102410.72;;;20.93;23.43
77897;BME280;67092;64.282;21.056;2023-05-07T04:57:45;102413.86;;;21.15;23.24
77897;BME280;67092;64.282;21.056;2023-05-07T05:00:11;102411.21;;;20.88;23.70
77897;BME280;67092;64.282;21.056;2023-05-07T05:02:37;102407.76;;;20.94;23.63
77897;BME280;67092;64.282;21.056;2023-05-07T05:05:02;102404.46;;;20.54;23.80
77897;BME280;67092;64.282;21.056;2023-05-07T05:07:28;102400.67;;;21.08;23.28
77897;BME280;67092;64.282;21.056;2023-05-07T05:09:53;102400.71;;;20.68;23.88
77897;BME280;67092;64.282;21.056;2023-05-07T05:12:19;102401.58;;;21.07;23.51
77897;BME280;67092;64.282;21.056;2023-05-07T05:14:45;102403.57;;;20.51;23.79
77897;BME280;67092;64.282;21.056;2023-05-07T05:17:10;102406.45;;;20.60;23.94
77897;BME280;67092;64.282;21.056;2023-05-07T05:19:36;102407.27;;;20.89;23.47
77897;BME280;67092;64.282;21.056;2023-05-07T05:22:01;102406.71;;;20.67;23.71
77897;BME280;67092;64.282;21.056;2023-05-07T05:24:27;102407.12;;;20.97;23.43
77897;BME280;67092;64.282;21.056;2023-05-07T05:26:53;102404.74;;;20.75;23.84
77897;BME280;67092;64.282;21.056;2023-05-07T05:29:18;102406.51;;;20.72;23.60
77897;BME280;67092;64.282;21.056;2023-05-07T05:31:44;102407.04;;;20.87;23.48
77897;BME280;67092;64.282;21.056;2023-05-07T05:34:10;102407.73;;;20.86;23.49
77897;BME280;67092;64.282;21.056;2023-05-07T05:36:35;102408.64;;;21.18;23.32
77897;BME280;67092;64.282;21.056;2023-05-07T05:39:01;102405.91;;;20.56;23.70
77897;BME280;67092;64.282;21.056;2023-05-07T05:41:26;102406.24;;;20.62;23.62
77897;BME280;67092;64.282;21.056;2023-05-07T05:43:52;102405.73;;;20.06;24.13
77897;BME280;67092;64.282;21.056;2023-05-07T05:46:18;102405.13;;;20.38;23.89
77897;BME280;67092;64.282;21.056;2023-05-07T05:48:43;102404.08;;;20.63;23.65
77897;BME280;67092;64.282;21.056;2023-05-07T05:51:09;102404.20;;;21.02;23.50
77897;BME280;67092;64.282;21.056;2023-05-07T05:53:34;102401.17;;;20.67;23.60
77897;BME280;67092;64.282;21.056;2023-05-07T05:56:00;102402.99;;;20.91;23.38
77897;BME280;67092;64.282;21.056;2023-05-07T05:58:26;102400.53;;;20.78;23.45
77897;BME280;67092;64.282;21.056;2023-05-07T06:00:51;102402.15;;;21.28;23.05
77897;BME280;67092;64.282;21.056;2023-05-07T06:03:17;102403.85;;;21.36;23.24
77897;BME280;67092;64.282;21.056;2023-05-07T06:05:43;102405.47;;;20.84;23.47
77897;BME280;67092;64.282;21.056;2023-05-07T06:08:08;102402.77;;;21.17;23.16
77897;BME280;67092;64.282;21.056;2023-05-07T06:10:35;102402.26;;;20.91;23.37
77897;BME280;67092;64.282;21.056;2023-05-07T06:12:59;102402.47;;;21.01;23.28
77897;BME280;67092;64.282;21.056;2023-05-07T06:15:25;102403.35;;;20.97;23.35
77897;BME280;67092;64.282;21.056;2023-05-07T06:17:51;102400.52;;;21.05;23.30
77897;BME280;67092;64.282;21.056;2023-05-07T06:20:16;102400.26;;;20.85;23.53
77897;BME280;67092;64.282;21.056;2023-05-07T06:22:42;102401.27;;;21.42;23.03
77897;BME280;67092;64.282;21.056;2023-05-07T06:25:08;102400.50;;;21.21;23.44
77897;BME280;67092;64.282;21.056;2023-05-07T06:27:33;102397.97;;;20.76;23.61
77897;BME280;67092;64.282;21.056;2023-05-07T06:29:59;102395.91;;;20.82;23.57
77897;BME280;67092;64.282;21.056;2023-05-07T06:32:25;102395.67;;;21.22;23.50
77897;BME280;67092;64.282;21.056;2023-05-07T06:34:50;102393.75;;;20.44;23.92
77897;BME280;67092;64.282;21.056;2023-05-07T06:37:16;102391.16;;;20.90;23.77
77897;BME280;67092;64.282;21.056;2023-05-07T06:39:41;102391.19;;;20.80;23.70
77897;BME280;67092;64.282;21.056;2023-05-07T06:42:07;102391.68;;;20.68;23.76
77897;BME280;67092;64.282;21.056;2023-05-07T06:44:32;102390.09;;;21.01;23.45
77897;BME280;67092;64.282;21.056;2023-05-07T06:46:58;102391.50;;;21.23;23.51
77897;BME280;67092;64.282;21.056;2023-05-07T06:49:24;102391.93;;;20.86;23.88
77897;BME280;67092;64.282;21.056;2023-05-07T06:51:49;102387.97;;;20.57;23.91
77897;BME280;67092;64.282;21.056;2023-05-07T06:54:15;102388.83;;;20.55;23.98
77897;BME280;67092;64.282;21.056;2023-05-07T06:56:40;102388.84;;;20.68;23.83
77897;BME280;67092;64.282;21.056;2023-05-07T06:59:06;102389.48;;;20.53;23.94
77897;BME280;67092;64.282;21.056;2023-05-07T07:01:32;102390.19;;;21.15;23.87
77897;BME280;67092;64.282;21.056;2023-05-07T07:03:57;102391.80;;;20.80;23.83
77897;BME280;67092;64.282;21.056;2023-05-07T07:06:23;102394.23;;;21.10;23.59
77897;BME280;67092;64.282;21.056;2023-05-07T07:08:49;102391.47;;;20.82;23.86
77897;BME280;67092;64.282;21.056;2023-05-07T07:11:15;102389.72;;;21.30;23.59
77897;BME280;67092;64.282;21.056;2023-05-07T07:13:40;102391.77;;;21.18;23.60
77897;BME280;67092;64.282;21.056;2023-05-07T07:16:06;102385.99;;;21.32;23.68
77897;BME280;67092;64.282;21.056;2023-05-07T07:18:31;102387.04;;;20.92;23.86
77897;BME280;67092;64.282;21.056;2023-05-07T07:20:57;102382.34;;;20.67;24.07
77897;BME280;67092;64.282;21.056;2023-05-07T07:23:23;102381.30;;;21.01;23.77
77897;BME280;67092;64.282;21.056;2023-05-07T07:25:48;102381.79;;;21.09;23.66
77897;BME280;67092;64.282;21.056;2023-05-07T07:28:13;102378.02;;;20.53;24.14
77897;BME280;67092;64.282;21.056;2023-05-07T07:30:39;102376.13;;;20.75;23.96
77897;BME280;67092;64.282;21.056;2023-05-07T07:33:04;102377.68;;;21.09;23.62
77897;BME280;67092;64.282;21.056;2023-05-07T07:35:30;102372.26;;;20.95;23.75
77897;BME280;67092;64.282;21.056;2023-05-07T07:37:56;102375.09;;;21.19;23.50
77897;BME280;67092;64.282;21.056;2023-05-07T07:40:21;102372.03;;;21.13;23.32
77897;BME280;67092;64.282;21.056;2023-05-07T07:42:47;102373.78;;;21.07;23.58
77897;BME280;67092;64.282;21.056;2023-05-07T07:45:12;102371.71;;;20.80;23.78
77897;BME280;67092;64.282;21.056;2023-05-07T07:47:39;102374.19;;;21.14;23.69
77897;BME280;67092;64.282;21.056;2023-05-07T07:50:04;102375.48;;;20.87;23.50
77897;BME280;67092;64.282;21.056;2023-05-07T07:52:29;102374.51;;;21.48;23.18
77897;BME280;67092;64.282;21.056;2023-05-07T07:54:55;102373.77;;;20.98;23.59
77897;BME280;67092;64.282;21.056;2023-05-07T07:57:21;102376.57;;;21.76;22.91
77897;BME280;67092;64.282;21.056;2023-05-07T07:59:46;102371.19;;;20.92;23.63
77897;BME280;67092;64.282;21.056;2023-05-07T08:02:12;102373.31;;;21.55;23.03
77897;BME280;67092;64.282;21.056;2023-05-07T08:04:37;102374.33;;;21.28;23.26
77897;BME280;67092;64.282;21.056;2023-05-07T08:07:03;102371.20;;;21.43;22.92
77897;BME280;67092;64.282;21.056;2023-05-07T08:09:28;102372.47;;;21.53;23.04
77897;BME280;67092;64.282;21.056;2023-05-07T08:11:54;102374.98;;;21.05;23.23
77897;BME280;67092;64.282;21.056;2023-05-07T08:14:20;102374.35;;;21.47;23.08
77897;BME280;67092;64.282;21.056;2023-05-07T08:16:45;102375.95;;;21.44;23.09
77897;BME280;67092;64.282;21.056;2023-05-07T08:19:11;102377.23;;;20.73;23.27
77897;BME280;67092;64.282;21.056;2023-05-07T08:21:39;102374.09;;;21.33;23.20
77897;BME280;67092;64.282;21.056;2023-05-07T08:24:02;102373.37;;;21.45;23.08
77897;BME280;67092;64.282;21.056;2023-05-07T08:26:28;102374.17;;;21.13;23.11
77897;BME280;67092;64.282;21.056;2023-05-07T08:28:53;102373.54;;;21.26;23.18
77897;BME280;67092;64.282;21.056;2023-05-07T08:31:19;102371.12;;;21.04;23.38
77897;BME280;67092;64.282;21.056;2023-05-07T08:33:45;102368.82;;;21.38;22.70
77897;BME280;67092;64.282;21.056;2023-05-07T08:36:10;102367.81;;;21.81;22.71
77897;BME280;67092;64.282;21.056;2023-05-07T08:38:36;102370.10;;;21.26;23.02
77897;BME280;67092;64.282;21.056;2023-05-07T08:41:01;102371.08;;;21.07;23.39
77897;BME280;67092;64.282;21.056;2023-05-07T08:43:27;102373.62;;;21.36;22.85
77897;BME280;67092;64.282;21.056;2023-05-07T08:45:53;102371.75;;;21.32;22.76
77897;BME280;67092;64.282;21.056;2023-05-07T08:48:21;102368.23;;;21.61;22.67
77897;BME280;67092;64.282;21.056;2023-05-07T08:50:44;102369.17;;;21.72;22.78
77897;BME280;67092;64.282;21.056;2023-05-07T08:53:10;102367.64;;;21.70;22.60
77897;BME280;67092;64.282;21.056;2023-05-07T08:55:35;102367.10;;;21.44;22.78
77897;BME280;67092;64.282;21.056;2023-05-07T08:58:01;102364.32;;;21.12;22.90
77897;BME280;67092;64.282;21.056;2023-05-07T09:00:26;102360.58;;;21.25;22.81
77897;BME280;67092;64.282;21.056;2023-05-07T09:02:52;102361.35;;;21.80;22.72
77897;BME280;67092;64.282;21.056;2023-05-07T09:05:18;102361.08;;;21.81;22.70
77897;BME280;67092;64.282;21.056;2023-05-07T09:07:43;102360.75;;;21.50;22.80
77897;BME280;67092;64.282;21.056;2023-05-07T09:10:09;102361.89;;;22.01;22.59
77897;BME280;67092;64.282;21.056;2023-05-07T09:12:34;102361.36;;;21.88;22.69
77897;BME280;67092;64.282;21.056;2023-05-07T09:15:00;102360.69;;;21.75;22.59
77897;BME280;67092;64.282;21.056;2023-05-07T09:17:26;102361.05;;;21.62;22.92
77897;BME280;67092;64.282;21.056;2023-05-07T09:19:51;102360.07;;;21.33;22.97
77897;BME280;67092;64.282;21.056;2023-05-07T09:22:17;102358.76;;;21.52;23.01
77897;BME280;67092;64.282;21.056;2023-05-07T09:24:47;102357.66;;;21.04;22.99
77897;BME280;67092;64.282;21.056;2023-05-07T09:27:08;102357.80;;;21.74;22.86
77897;BME280;67092;64.282;21.056;2023-05-07T09:29:34;102357.18;;;21.37;22.77
77897;BME280;67092;64.282;21.056;2023-05-07T09:31:59;102359.35;;;21.97;22.42
77897;BME280;67092;64.282;21.056;2023-05-07T09:34:25;102359.80;;;21.81;22.65
77897;BME280;67092;64.282;21.056;2023-05-07T09:36:51;102359.31;;;22.02;22.48
77897;BME280;67092;64.282;21.056;2023-05-07T09:39:16;102359.40;;;21.77;22.50
77897;BME280;67092;64.282;21.056;2023-05-07T09:41:46;102355.78;;;22.99;21.74
77897;BME280;67092;64.282;21.056;2023-05-07T09:44:07;102357.32;;;22.07;22.24
77897;BME280;67092;64.282;21.056;2023-05-07T09:46:34;102357.29;;;22.03;22.27
77897;BME280;67092;64.282;21.056;2023-05-07T09:49:01;102359.82;;;21.41;22.74
77897;BME280;67092;64.282;21.056;2023-05-07T09:51:29;102361.16;;;21.94;22.25
77897;BME280;67092;64.282;21.056;2023-05-07T09:53:50;102358.44;;;21.67;22.63
77897;BME280;67092;64.282;21.056;2023-05-07T09:56:16;102356.45;;;22.18;21.99
77897;BME280;67092;64.282;21.056;2023-05-07T09:58:41;102357.96;;;21.73;22.49
77897;BME280;67092;64.282;21.056;2023-05-07T10:01:07;102357.05;;;21.75;22.45
77897;BME280;67092;64.282;21.056;2023-05-07T10:03:33;102355.32;;;21.67;22.31
77897;BME280;67092;64.282;21.056;2023-05-07T10:05:58;102354.64;;;21.82;22.13
77897;BME280;67092;64.282;21.056;2023-05-07T10:08:24;102352.50;;;21.52;22.60
77897;BME280;67092;64.282;21.056;2023-05-07T10:10:49;102353.44;;;21.84;22.09
77897;BME280;67092;64.282;21.056;2023-05-07T10:13:15;102354.20;;;21.26;22.57
77897;BME280;67092;64.282;21.056;2023-05-07T10:15:41;102352.63;;;21.71;22.33
77897;BME280;67092;64.282;21.056;2023-05-07T10:18:06;102356.30;;;22.17;21.95
77897;BME280;67092;64.282;21.056;2023-05-07T10:20:33;102353.67;;;21.61;22.41
77897;BME280;67092;64.282;21.056;2023-05-07T10:22:58;102352.09;;;22.08;21.80
77897;BME280;67092;64.282;21.056;2023-05-07T10:25:28;102352.68;;;21.63;22.13
77897;BME280;67092;64.282;21.056;2023-05-07T10:27:50;102351.21;;;21.79;21.97
77897;BME280;67092;64.282;21.056;2023-05-07T10:30:22;102351.01;;;21.76;22.17
77897;BME280;67092;64.282;21.056;2023-05-07T10:32:42;102348.13;;;21.92;21.82
77897;BME280;67092;64.282;21.056;2023-05-07T10:35:10;102352.51;;;21.88;21.86
77897;BME280;67092;64.282;21.056;2023-05-07T10:37:31;102347.91;;;21.49;22.14
77897;BME280;67092;64.282;21.056;2023-05-07T10:39:57;102347.66;;;21.40;22.21
77897;BME280;67092;64.282;21.056;2023-05-07T10:42:22;102343.81;;;22.48;21.71
77897;BME280;67092;64.282;21.056;2023-05-07T10:44:48;102343.81;;;21.86;22.00
77897;BME280;67092;64.282;21.056;2023-05-07T10:47:16;102341.74;;;21.96;21.67
77897;BME280;67092;64.282;21.056;2023-05-07T10:52:11;102347.98;;;21.67;21.90
77897;BME280;67092;64.282;21.056;2023-05-07T10:54:30;102349.09;;;21.67;21.90
77897;BME280;67092;64.282;21.056;2023-05-07T10:56:56;102343.00;;;21.92;21.68
77897;BME280;67092;64.282;21.056;2023-05-07T10:59:32;102343.04;;;21.64;21.91
77897;BME280;67092;64.282;21.056;2023-05-07T11:01:53;102341.99;;;21.51;22.04
77897;BME280;67092;64.282;21.056;2023-05-07T11:04:14;102343.31;;;21.40;22.08
77897;BME280;67092;64.282;21.056;2023-05-07T11:06:39;102340.38;;;21.68;21.85
77897;BME280;67092;64.282;21.056;2023-05-07T11:09:04;102343.58;;;21.37;22.09
77897;BME280;67092;64.282;21.056;2023-05-07T11:11:45;102343.77;;;21.93;22.04
77897;BME280;67092;64.282;21.056;2023-05-07T11:13:55;102344.36;;;21.50;21.96
77897;BME280;67092;64.282;21.056;2023-05-07T11:16:22;102345.59;;;21.32;22.10
77897;BME280;67092;64.282;21.056;2023-05-07T11:18:48;102343.26;;;21.98;21.92
77897;BME280;67092;64.282;21.056;2023-05-07T11:21:12;102345.19;;;21.78;21.68
77897;BME280;67092;64.282;21.056;2023-05-07T11:23:55;102348.08;;;22.08;21.89
77897;BME280;67092;64.282;21.056;2023-05-07T11:26:05;102346.39;;;21.76;21.96
77897;BME280;67092;64.282;21.056;2023-05-07T11:28:30;102344.24;;;21.87;22.35
77897;BME280;67092;64.282;21.056;2023-05-07T11:30:56;102344.54;;;22.31;22.23
77897;BME280;67092;64.282;21.056;2023-05-07T11:33:20;102347.92;;;21.19;23.03
77897;BME280;67092;64.282;21.056;2023-05-07T11:35:46;102351.32;;;21.74;22.83
77897;BME280;67092;64.282;21.056;2023-05-07T11:38:11;102351.72;;;21.56;22.40
77897;BME280;67092;64.282;21.056;2023-05-07T11:43:10;102355.21;;;21.79;21.68
77897;BME280;67092;64.282;21.056;2023-05-07T11:45:28;102351.74;;;21.67;22.12
77897;BME280;67092;64.282;21.056;2023-05-07T11:47:54;102347.17;;;21.85;22.00
77897;BME280;67092;64.282;21.056;2023-05-07T11:50:19;102348.16;;;21.32;22.23
77897;BME280;67092;64.282;21.056;2023-05-07T11:52:50;102346.12;;;21.61;21.81
77897;BME280;67092;64.282;21.056;2023-05-07T11:55:11;102348.42;;;21.32;21.99
77897;BME280;67092;64.282;21.056;2023-05-07T11:57:36;102346.00;;;21.45;21.90
77897;BME280;67092;64.282;21.056;2023-05-07T12:00:03;102348.07;;;21.72;21.68
77897;BME280;67092;64.282;21.056;2023-05-07T12:02:28;102337.87;;;20.91;22.17
77897;BME280;67092;64.282;21.056;2023-05-07T12:04:54;102343.64;;;21.01;21.75
77897;BME280;67092;64.282;21.056;2023-05-07T12:07:19;102344.00;;;20.82;21.74
77897;BME280;67092;64.282;21.056;2023-05-07T12:09:45;102342.06;;;21.69;20.91
77897;BME280;67092;64.282;21.056;2023-05-07T12:12:10;102341.78;;;21.55;21.26
77897;BME280;67092;64.282;21.056;2023-05-07T12:14:38;102339.63;;;21.78;21.29
77897;BME280;67092;64.282;21.056;2023-05-07T12:17:02;102338.04;;;21.26;21.34
77897;BME280;67092;64.282;21.056;2023-05-07T12:19:28;102335.94;;;21.94;21.20
77897;BME280;67092;64.282;21.056;2023-05-07T12:21:52;102337.66;;;21.36;21.51
77897;BME280;67092;64.282;21.056;2023-05-07T12:24:18;102337.78;;;21.61;21.53
77897;BME280;67092;64.282;21.056;2023-05-07T12:26:44;102339.48;;;21.35;21.56
77897;BME280;67092;64.282;21.056;2023-05-07T12:29:09;102335.98;;;20.93;21.68
77897;BME280;67092;64.282;21.056;2023-05-07T12:31:35;102333.57;;;21.14;21.54
77897;BME280;67092;64.282;21.056;2023-05-07T12:34:01;102334.07;;;21.21;21.47
77897;BME280;67092;64.282;21.056;2023-05-07T12:36:26;102330.15;;;21.90;23.69